Time;durP1;ratioP1;P1;durP2;ratioP2;P2;SDS_P1;SDS_P2;PMS_P1;PMS_P2;Temp;Humidity;BMP_temperature;BMP_pressure;BME280_temperature;BME280_humidity;BME280_pressure;Samples;Min_cycle;Max_cycle;Signal;HPM_P1;HPM_P2
2022/12/28 00:01:38;;;;;;;0.77;0.52;;;;;;;12.07;38.60;99044.22;6016837;23;20037;-86
2022/12/28 00:04:05;;;;;;;0.45;0.38;;;;;;;11.93;38.73;99010.69;6016251;23;20029;-86
2022/12/28 00:06:34;;;;;;;1.15;0.25;;;;;;;12.11;38.45;99045.41;6017235;23;20345;-86
2022/12/28 00:09:00;;;;;;;0.60;0.40;;;;;;;12.16;38.53;99052.75;6015768;23;20007;-86
2022/12/28 00:11:26;;;;;;;1.33;0.50;;;;;;;12.14;38.80;99057.50;6016264;23;20023;-86
2022/12/28 00:13:52;;;;;;;0.55;0.40;;;;;;;12.10;38.62;99075.09;6016433;23;20365;-86
2022/12/28 00:16:30;;;;;;;1.10;0.52;;;;;;;11.93;38.69;99043.63;6017110;23;20011;-86
2022/12/28 00:19:00;;;;;;;0.57;0.40;;;;;;;11.99;38.82;99044.59;6041125;23;20089;-86
2022/12/28 00:21:26;;;;;;;0.38;0.38;;;;;;;12.08;38.74;99055.78;6016770;23;20424;-86
2022/12/28 00:23:53;;;;;;;0.80;0.40;;;;;;;12.15;38.62;99076.03;6016571;23;20503;-86
2022/12/28 00:26:19;;;;;;;0.40;0.40;;;;;;;12.09;38.78;99079.66;6016576;23;20042;-86
2022/12/28 00:28:45;;;;;;;0.68;0.40;;;;;;;11.99;38.65;99079.38;6015937;23;20334;-86
2022/12/28 00:31:11;;;;;;;0.63;0.40;;;;;;;12.25;38.59;99114.84;6015813;23;20397;-87
2022/12/28 00:33:37;;;;;;;0.45;0.40;;;;;;;12.14;38.78;99086.97;6016001;23;20089;-87
2022/12/28 00:36:03;;;;;;;0.45;0.30;;;;;;;12.00;38.87;99091.72;6016551;23;20015;-86
2022/12/28 00:38:32;;;;;;;0.45;0.35;;;;;;;12.00;38.73;99089.03;6016306;23;20610;-86
2022/12/28 00:40:58;;;;;;;0.60;0.30;;;;;;;12.27;38.79;99123.47;6040227;23;20105;-86
2022/12/28 00:43:24;;;;;;;0.50;0.38;;;;;;;11.99;38.71;99090.09;6016293;23;20011;-86
2022/12/28 00:45:49;;;;;;;0.32;0.20;;;;;;;12.05;38.80;99096.38;6016135;23;20018;-86
2022/12/28 00:48:15;;;;;;;0.20;0.20;;;;;;;12.15;38.73;99121.56;6016296;23;20372;-86
2022/12/28 00:50:41;;;;;;;0.55;0.40;;;;;;;12.07;38.71;99108.50;6016242;23;20015;-86
2022/12/28 00:53:07;;;;;;;0.70;0.40;;;;;;;11.99;38.58;99101.63;6015132;23;20011;-86
2022/12/28 00:55:33;;;;;;;0.30;0.30;;;;;;;12.00;38.85;99103.25;6016236;23;20388;-86
2022/12/28 00:58:00;;;;;;;0.43;0.30;;;;;;;12.21;38.52;99142.09;6015788;23;20090;-86
2022/12/28 01:00:26;;;;;;;1.05;0.30;;;;;;;12.18;38.89;99139.88;6016298;23;20033;-86
2022/12/28 01:02:51;;;;;;;0.20;0.20;;;;;;;12.01;38.27;99104.88;6015650;23;20015;-86
2022/12/28 01:05:17;;;;;;;0.63;0.40;;;;;;;12.08;38.71;99120.03;6014930;23;20023;-86
2022/12/28 01:07:43;;;;;;;0.95;0.65;;;;;;;12.13;38.57;99131.69;6015724;23;20448;-86
2022/12/28 01:10:09;;;;;;;0.30;0.30;;;;;;;12.28;38.59;99143.84;6015771;23;20428;-86
2022/12/28 01:12:35;;;;;;;1.17;0.43;;;;;;;12.15;38.59;99126.91;6039622;23;20810;-86
2022/12/28 01:15:01;;;;;;;0.50;0.38;;;;;;;12.26;38.37;99149.41;6039575;23;19998;-86
2022/12/28 01:17:27;;;;;;;0.40;0.40;;;;;;;12.23;38.55;99151.75;6016325;23;20023;-86
2022/12/28 01:19:53;;;;;;;0.47;0.40;;;;;;;12.24;38.64;99156.06;6015867;23;20003;-86
2022/12/28 01:22:18;;;;;;;0.30;0.30;;;;;;;12.14;38.33;99145.91;6063768;23;20018;-86
2022/12/28 01:24:44;;;;;;;0.65;0.40;;;;;;;12.15;38.60;99152.91;6039130;23;20034;-86
2022/12/28 01:27:10;;;;;;;0.73;0.40;;;;;;;12.34;38.46;99169.72;6015313;23;20014;-86
2022/12/28 01:29:35;;;;;;;0.43;0.22;;;;;;;12.32;38.53;99163.78;6015648;23;20047;-85
2022/12/28 01:32:01;;;;;;;0.40;0.30;;;;;;;12.24;38.55;99150.72;6016128;23;19999;-86
2022/12/28 01:34:27;;;;;;;0.43;0.20;;;;;;;12.29;38.54;99169.59;6039436;23;20009;-85
2022/12/28 01:36:53;;;;;;;0.50;0.50;;;;;;;12.32;38.34;99174.50;6015804;23;20017;-86
2022/12/28 01:39:18;;;;;;;0.75;0.38;;;;;;;12.28;38.69;99168.78;6038916;23;20338;-86
2022/12/28 01:41:44;;;;;;;0.40;0.35;;;;;;;12.32;38.45;99174.50;6015445;23;20014;-86
2022/12/28 01:44:09;;;;;;;0.68;0.43;;;;;;;12.37;38.26;99185.34;6039056;23;20013;-86
2022/12/28 01:46:46;;;;;;;0.60;0.40;;;;;;;12.28;38.29;99173.31;6062865;23;20010;-86
2022/12/28 01:49:24;;;;;;;0.40;0.30;;;;;;;12.36;38.25;99187.19;6014721;23;20147;-86
2022/12/28 01:51:55;;;;;;;0.50;0.38;;;;;;;12.28;38.20;99167.94;6062455;23;20038;-85
2022/12/28 01:54:20;;;;;;;0.80;0.30;;;;;;;12.29;38.27;99164.22;6062608;23;20016;-86
2022/12/28 01:56:46;;;;;;;0.47;0.30;;;;;;;12.34;38.35;99180.44;6014589;23;20014;-86
2022/12/28 01:59:16;;;;;;;0.22;0.22;;;;;;;12.34;38.31;99180.44;6014030;23;20014;-85
2022/12/28 02:01:41;;;;;;;0.30;0.30;;;;;;;12.31;38.50;99180.88;6015079;23;20011;-85
2022/12/28 02:04:07;;;;;;;0.88;0.30;;;;;;;12.30;38.27;99182.75;6010074;23;20059;-85
2022/12/28 02:06:33;;;;;;;0.68;0.40;;;;;;;12.30;38.37;99187.31;5963886;23;20075;-85
2022/12/28 02:09:12;;;;;;;0.32;0.30;;;;;;;12.37;38.39;99199.56;5987369;23;20085;-85
2022/12/28 02:11:56;;;;;;;0.20;0.20;;;;;;;12.36;38.26;99203.25;5987555;23;20011;-85
2022/12/28 02:14:22;;;;;;;0.38;0.35;;;;;;;11.98;38.49;99147.34;5986883;23;20053;-85
2022/12/28 02:16:47;;;;;;;0.30;0.30;;;;;;;12.28;38.51;99197.41;5963603;23;20011;-85
2022/12/28 02:19:20;;;;;;;0.28;0.28;;;;;;;12.12;38.12;99159.50;5986150;23;20011;-85
2022/12/28 02:21:52;;;;;;;0.30;0.30;;;;;;;12.40;38.50;99203.66;5962868;23;20047;-85
2022/12/28 02:24:55;;;;;;;0.40;0.30;;;;;;;12.39;38.25;99202.81;6009571;23;20011;-85
2022/12/28 02:27:48;;;;;;;0.47;0.30;;;;;;;12.42;38.39;99212.28;6008392;23;20512;-86
2022/12/28 02:30:14;;;;;;;0.30;0.30;;;;;;;12.31;38.16;99199.63;6008680;23;20011;-85
2022/12/28 02:33:01;;;;;;;0.38;0.30;;;;;;;12.06;38.16;99155.09;5962340;23;20090;-86
2022/12/28 02:35:40;;;;;;;0.25;0.25;;;;;;;12.19;38.21;99187.03;5989567;23;20345;-85
2022/12/28 02:38:25;;;;;;;0.75;0.40;;;;;;;12.25;38.38;99196.03;5987334;23;20031;-85
2022/12/28 02:41:00;;;;;;;0.55;0.30;;;;;;;12.17;38.21;99177.59;5962399;23;20400;-85
2022/12/28 02:43:26;;;;;;;0.40;0.30;;;;;;;12.27;38.12;99196.59;5984993;23;20007;-85
2022/12/28 02:51:39;;;;;;;0.90;0.30;;;;;;;12.25;38.15;99200.56;5993714;23;20050;-86
2022/12/28 02:57:19;;;;;;;0.30;0.30;;;;;;;12.32;38.29;99209.31;6012027;23;20018;-86
2022/12/28 03:00:21;;;;;;;0.30;0.30;;;;;;;12.28;38.18;99203.59;5986055;23;20074;-85
2022/12/28 03:03:16;;;;;;;0.57;0.40;;;;;;;12.18;38.03;99196.09;5919882;24;20089;-85
2022/12/28 03:09:14;;;;;;;0.30;0.30;;;;;;;12.00;38.37;99153.28;6045486;23;20022;-86
2022/12/28 03:11:47;;;;;;;0.52;0.38;;;;;;;12.45;38.33;99238.59;6013850;23;20014;-85
2022/12/28 03:14:41;;;;;;;0.30;0.30;;;;;;;12.06;38.11;99189.09;6012107;23;20015;-85
2022/12/28 03:31:05;;;;;;;0.20;0.20;;;;;;;12.40;38.24;99230.44;6042219;23;20477;-85
2022/12/28 03:33:32;;;;;;;0.40;0.40;;;;;;;12.40;38.28;99241.16;6018510;23;20003;-85
2022/12/28 03:36:08;;;;;;;0.28;0.20;;;;;;;12.45;38.15;99257.34;6013705;23;20047;-85
2022/12/28 03:38:52;;;;;;;0.30;0.30;;;;;;;12.44;38.26;99250.38;6037962;23;20030;-85
2022/12/28 03:41:43;;;;;;;1.10;0.30;;;;;;;12.43;38.09;99245.22;6039589;23;20071;-86
2022/12/28 03:44:20;;;;;;;0.55;0.30;;;;;;;12.45;38.20;99241.25;6040521;23;20463;-85
2022/12/28 03:46:59;;;;;;;0.22;0.20;;;;;;;12.48;38.29;99264.94;6039689;23;20364;-85
2022/12/28 03:49:25;;;;;;;0.30;0.30;;;;;;;12.38;38.20;99243.22;6014519;23;20101;-85
2022/12/28 03:51:50;;;;;;;0.40;0.30;;;;;;;12.46;38.04;99250.94;6037402;23;20333;-85
2022/12/28 03:54:16;;;;;;;0.40;0.30;;;;;;;12.42;38.11;99235.56;6014123;23;20094;-85
2022/12/28 03:56:49;;;;;;;0.68;0.35;;;;;;;12.47;38.31;99249.91;6037333;23;20011;-85
2022/12/28 03:59:15;;;;;;;0.32;0.32;;;;;;;12.45;38.04;99248.50;6013436;23;20022;-85
2022/12/28 04:01:41;;;;;;;0.43;0.30;;;;;;;12.49;38.14;99253.19;6036887;23;20010;-85
2022/12/28 04:04:07;;;;;;;0.40;0.40;;;;;;;12.50;38.17;99254.00;5985831;23;20012;-85
2022/12/28 04:06:32;;;;;;;0.20;0.20;;;;;;;12.47;37.85;99251.75;5962665;23;20017;-85
2022/12/28 04:08:58;;;;;;;0.40;0.40;;;;;;;12.51;37.92;99253.78;5987011;23;20013;-85
2022/12/28 04:11:24;;;;;;;0.30;0.30;;;;;;;12.50;38.12;99249.44;5962440;23;20449;-85
2022/12/28 04:13:50;;;;;;;0.40;0.40;;;;;;;12.47;37.82;99252.59;5985928;23;20425;-85
2022/12/28 04:16:15;;;;;;;1.30;0.30;;;;;;;12.46;37.84;99236.75;5985456;23;20011;-85
2022/12/28 04:18:41;;;;;;;1.20;0.30;;;;;;;12.49;37.76;99245.16;5985617;23;20349;-85
2022/12/28 04:21:11;;;;;;;0.22;0.22;;;;;;;12.46;37.85;99253.63;5984753;23;20063;-85
2022/12/28 04:23:43;;;;;;;0.20;0.20;;;;;;;12.47;38.07;99247.25;5962917;23;20377;-85
2022/12/28 04:26:12;;;;;;;0.20;0.20;;;;;;;12.28;37.96;99226.88;5985041;23;20015;-85
2022/12/28 04:28:38;;;;;;;0.47;0.30;;;;;;;12.29;38.19;99212.44;5963203;23;20452;-85
2022/12/28 04:31:05;;;;;;;0.30;0.30;;;;;;;12.33;37.84;99229.69;5962402;23;20011;-85
2022/12/28 04:33:34;;;;;;;0.30;0.30;;;;;;;12.52;38.12;99255.41;5962406;23;20090;-85
2022/12/28 04:36:08;;;;;;;0.35;0.32;;;;;;;12.38;37.83;99233.34;5962521;23;20011;-85
2022/12/28 04:38:34;;;;;;;0.30;0.30;;;;;;;12.41;37.91;99237.41;5963374;23;20015;-85
2022/12/28 04:41:00;;;;;;;0.30;0.30;;;;;;;12.31;37.73;99231.78;5961370;23;20245;-85
2022/12/28 04:43:29;;;;;;;0.20;0.20;;;;;;;12.39;37.81;99245.69;5961993;23;20018;-85
2022/12/28 04:45:58;;;;;;;0.38;0.30;;;;;;;12.40;37.74;99246.53;5963262;23;20058;-85
2022/12/28 04:48:24;;;;;;;0.40;0.38;;;;;;;12.42;37.87;99244.44;5962658;23;20022;-85
2022/12/28 04:50:53;;;;;;;0.40;0.40;;;;;;;12.29;37.65;99228.53;5962437;23;20083;-85
2022/12/28 04:53:18;;;;;;;0.30;0.30;;;;;;;12.29;37.72;99228.53;5962250;23;20015;-85
2022/12/28 04:55:44;;;;;;;0.35;0.35;;;;;;;12.07;37.95;99204.09;5961792;23;20014;-85
2022/12/28 04:58:10;;;;;;;0.30;0.30;;;;;;;12.38;37.80;99243.22;5961620;23;20015;-85
2022/12/28 05:00:36;;;;;;;0.30;0.30;;;;;;;12.31;37.52;99248.66;5962043;23;20440;-86
2022/12/28 05:03:01;;;;;;;0.40;0.30;;;;;;;12.28;37.57;99237.59;5987383;23;20133;-85
2022/12/28 05:05:30;;;;;;;0.40;0.30;;;;;;;12.21;37.62;99221.59;6036658;23;20106;-85
2022/12/28 05:07:59;;;;;;;0.30;0.30;;;;;;;12.53;37.67;99274.97;6012899;23;20035;-85
2022/12/28 05:10:25;;;;;;;0.30;0.30;;;;;;;12.34;37.84;99242.88;6013366;23;20260;-85
2022/12/28 05:12:50;;;;;;;0.30;0.30;;;;;;;12.27;38.00;99234.09;6013277;23;20037;-85
2022/12/28 05:15:16;;;;;;;0.65;0.40;;;;;;;12.32;38.02;99244.16;6012416;23;20010;-85
2022/12/28 05:17:45;;;;;;;0.30;0.30;;;;;;;12.34;37.74;99250.09;6036520;23;20401;-86
2022/12/28 05:20:11;;;;;;;0.30;0.30;;;;;;;12.44;37.70;99262.97;6036988;23;20046;-85
2022/12/28 05:22:36;;;;;;;0.38;0.38;;;;;;;12.49;38.04;99274.63;6060093;23;20060;-85
2022/12/28 05:25:02;;;;;;;0.45;0.30;;;;;;;12.56;37.82;99286.06;6061962;23;20017;-86
2022/12/28 05:27:28;;;;;;;0.45;0.30;;;;;;;12.56;38.01;99288.75;6062487;23;20007;-86
2022/12/28 05:29:54;;;;;;;0.30;0.30;;;;;;;12.52;37.57;99287.56;6012683;23;20010;-85
2022/12/28 05:32:19;;;;;;;0.20;0.20;;;;;;;12.46;37.92;99271.59;6012723;23;20073;-85
2022/12/28 05:34:45;;;;;;;0.30;0.30;;;;;;;12.52;37.76;99287.56;6012896;23;20093;-85
2022/12/28 05:37:11;;;;;;;0.28;0.28;;;;;;;12.55;37.72;99289.78;6036032;23;20027;-85
2022/12/28 05:39:36;;;;;;;0.60;0.40;;;;;;;12.49;37.91;99282.66;6035476;23;20457;-86
2022/12/28 05:42:02;;;;;;;0.43;0.30;;;;;;;12.56;37.53;99298.66;6035772;23;20038;-85
2022/12/28 05:44:28;;;;;;;0.20;0.20;;;;;;;12.54;37.95;99300.75;6011195;23;20425;-86
2022/12/28 05:46:54;;;;;;;0.20;0.20;;;;;;;12.47;37.63;99290.13;6035203;23;20069;-85
2022/12/28 05:49:20;;;;;;;0.40;0.40;;;;;;;12.48;37.81;99291.72;6034183;23;20062;-86
2022/12/28 05:51:47;;;;;;;0.20;0.20;;;;;;;12.41;37.80;99296.38;6035516;23;20013;-86
2022/12/28 05:54:13;;;;;;;0.40;0.40;;;;;;;12.51;37.87;99307.38;6011406;23;20078;-85
2022/12/28 05:56:39;;;;;;;0.30;0.30;;;;;;;12.53;37.61;99321.34;6012220;23;20089;-86
2022/12/28 05:59:05;;;;;;;0.35;0.35;;;;;;;12.47;37.79;99298.16;6012904;23;20006;-86
2022/12/28 06:01:33;;;;;;;0.75;0.40;;;;;;;12.47;37.73;99306.19;6037434;23;20006;-86
2022/12/28 06:04:01;;;;;;;0.30;0.30;;;;;;;12.54;37.80;99317.63;6013813;23;20353;-85
2022/12/28 06:06:26;;;;;;;0.25;0.25;;;;;;;12.61;37.84;99336.31;6037592;23;20014;-85
2022/12/28 06:08:52;;;;;;;0.30;0.30;;;;;;;12.59;37.67;99327.69;6037584;23;20007;-86
2022/12/28 06:11:21;;;;;;;0.28;0.28;;;;;;;12.63;37.68;99330.72;6060655;23;20006;-86
2022/12/28 06:13:47;;;;;;;0.55;0.30;;;;;;;12.59;37.72;99330.38;6014468;23;20014;-85
2022/12/28 06:16:18;;;;;;;0.50;0.30;;;;;;;12.47;37.87;99319.59;6037391;23;20011;-85
2022/12/28 06:18:44;;;;;;;0.30;0.30;;;;;;;12.56;37.75;99345.03;6037540;23;20002;-86
2022/12/28 06:21:15;;;;;;;0.40;0.40;;;;;;;12.51;37.55;99339.53;6012847;23;20010;-86
2022/12/28 06:23:40;;;;;;;0.30;0.30;;;;;;;12.57;37.78;99343.16;6037696;23;20015;-86
2022/12/28 06:26:07;;;;;;;0.30;0.30;;;;;;;12.55;37.85;99334.53;6061356;23;20464;-85
2022/12/28 06:28:32;;;;;;;0.30;0.30;;;;;;;12.57;37.78;99338.63;6013802;23;20093;-86
2022/12/28 06:31:03;;;;;;;0.57;0.52;;;;;;;12.66;37.71;99351.69;6037062;23;20258;-86
2022/12/28 06:33:29;;;;;;;0.40;0.30;;;;;;;12.56;37.61;99341.53;6037479;23;20035;-86
2022/12/28 06:35:59;;;;;;;0.20;0.20;;;;;;;12.43;37.82;99330.97;6037372;23;20304;-86
2022/12/28 06:38:25;;;;;;;0.50;0.30;;;;;;;12.42;37.53;99334.69;6014433;23;20011;-86
2022/12/28 06:40:51;;;;;;;0.20;0.20;;;;;;;12.52;37.81;99357.25;6014378;23;20007;-86
2022/12/28 06:43:20;;;;;;;0.82;0.32;;;;;;;12.37;37.62;99333.50;6012931;23;20875;-85
2022/12/28 06:45:55;;;;;;;0.65;0.38;;;;;;;12.58;37.59;99356.34;6061554;23;20011;-86
2022/12/28 06:48:21;;;;;;;0.50;0.40;;;;;;;12.51;37.84;99355.59;6062433;23;20011;-86
2022/12/28 06:51:00;;;;;;;0.30;0.30;;;;;;;12.63;37.76;99370.94;6037466;23;20007;-86
2022/12/28 06:53:31;;;;;;;0.40;0.40;;;;;;;12.49;37.83;99362.25;6060542;23;20089;-86
2022/12/28 06:55:58;;;;;;;0.30;0.30;;;;;;;12.53;37.71;99364.22;6037148;23;20010;-86
2022/12/28 06:58:24;;;;;;;0.30;0.20;;;;;;;12.55;37.62;99361.34;6013613;23;20009;-86
2022/12/28 07:00:50;;;;;;;0.22;0.20;;;;;;;12.57;37.72;99380.69;6013939;23;20010;-85
2022/12/28 07:03:16;;;;;;;1.10;0.35;;;;;;;12.53;37.62;99371.47;6013379;23;20034;-86
2022/12/28 07:05:42;;;;;;;0.95;0.60;;;;;;;12.57;37.59;99365.44;6013669;23;20019;-86
2022/12/28 07:08:08;;;;;;;0.30;0.30;;;;;;;12.56;37.52;99371.81;6013921;23;20466;-86
2022/12/28 07:10:34;;;;;;;1.10;0.30;;;;;;;12.56;37.56;99385.22;6014280;23;20336;-86
2022/12/28 07:12:59;;;;;;;0.75;0.40;;;;;;;12.59;37.84;99386.66;6013039;23;20014;-86
2022/12/28 07:15:25;;;;;;;0.20;0.20;;;;;;;12.57;37.96;99380.69;6037208;23;19999;-86
2022/12/28 07:17:51;;;;;;;0.45;0.28;;;;;;;12.50;37.83;99380.75;6037505;23;20500;-86
2022/12/28 07:20:19;;;;;;;0.30;0.30;;;;;;;12.55;37.75;99386.25;6013390;23;20039;-86
2022/12/28 07:22:45;;;;;;;0.85;0.40;;;;;;;12.54;37.73;99387.31;6060672;23;20003;-86
2022/12/28 07:25:11;;;;;;;0.85;0.40;;;;;;;12.53;37.69;99396.41;6013500;23;20341;-86
2022/12/28 07:27:37;;;;;;;0.63;0.20;;;;;;;12.59;37.92;99395.50;6013640;23;20038;-86
2022/12/28 07:30:03;;;;;;;0.38;0.38;;;;;;;12.55;37.69;99391.63;6037931;23;20007;-85
2022/12/28 07:32:29;;;;;;;0.30;0.30;;;;;;;12.58;37.79;99399.22;6013367;23;20519;-86
2022/12/28 07:34:55;;;;;;;0.40;0.40;;;;;;;12.56;38.01;99393.28;6013109;23;20014;-86
2022/12/28 07:37:20;;;;;;;0.93;0.30;;;;;;;12.54;37.62;99397.22;6013002;23;20014;-86
2022/12/28 07:39:46;;;;;;;0.30;0.30;;;;;;;12.50;37.64;99396.84;6013481;23;20010;-86
2022/12/28 07:42:11;;;;;;;0.30;0.30;;;;;;;12.55;37.84;99407.69;6037043;23;20775;-85
2022/12/28 07:44:40;;;;;;;1.02;0.30;;;;;;;12.53;37.81;99401.75;6013344;23;20330;-86
2022/12/28 07:47:06;;;;;;;0.30;0.30;;;;;;;12.52;37.52;99399.28;6036789;23;20031;-86
2022/12/28 07:49:32;;;;;;;0.52;0.40;;;;;;;12.53;37.56;99417.84;6036824;23;20018;-86
2022/12/28 07:52:00;;;;;;;0.47;0.40;;;;;;;12.53;37.79;99404.44;6037198;23;20015;-86
2022/12/28 07:54:32;;;;;;;0.20;0.20;;;;;;;12.54;37.71;99408.75;6037689;23;20372;-86
2022/12/28 07:56:58;;;;;;;0.73;0.38;;;;;;;12.42;37.79;99393.63;6036484;23;20007;-86
2022/12/28 07:59:23;;;;;;;0.40;0.40;;;;;;;12.28;37.89;99376.91;6013227;23;20021;-86
2022/12/28 08:01:52;;;;;;;0.30;0.30;;;;;;;12.49;37.81;99421.22;6012053;23;20003;-86
2022/12/28 08:04:21;;;;;;;0.32;0.20;;;;;;;12.47;37.66;99416.06;5963796;23;20357;-86
2022/12/28 08:06:47;;;;;;;1.20;0.32;;;;;;;12.28;37.73;99387.63;5964373;23;20011;-86
2022/12/28 08:09:13;;;;;;;0.45;0.30;;;;;;;12.44;37.86;99419.19;5962706;23;20019;-86
2022/12/28 08:11:40;;;;;;;0.30;0.30;;;;;;;12.34;37.84;99408.97;5963698;23;20095;-86
2022/12/28 08:14:07;;;;;;;0.22;0.17;;;;;;;12.35;37.90;99416.00;5963327;23;20027;-86
2022/12/28 08:16:40;;;;;;;0.30;0.30;;;;;;;12.28;37.85;99406.38;5963604;23;20399;-86
2022/12/28 08:19:06;;;;;;;0.22;0.22;;;;;;;12.26;37.76;99406.59;5963827;23;20027;-86
2022/12/28 08:21:36;;;;;;;0.55;0.45;;;;;;;12.21;37.92;99403.75;5963538;23;20094;-86
2022/12/28 08:24:02;;;;;;;0.28;0.20;;;;;;;12.38;37.70;99426.28;5963432;23;20015;-86
2022/12/28 08:26:32;;;;;;;0.43;0.28;;;;;;;12.15;37.78;99391.28;5963124;23;20353;-86
2022/12/28 08:29:00;;;;;;;0.40;0.30;;;;;;;12.28;38.18;99409.06;5963083;23;20015;-86
2022/12/28 08:31:27;;;;;;;0.20;0.20;;;;;;;12.28;37.88;99414.41;5963287;23;20019;-86
2022/12/28 08:33:54;;;;;;;1.23;0.47;;;;;;;12.25;37.89;99398.81;5963262;23;20012;-86
2022/12/28 08:36:20;;;;;;;0.30;0.30;;;;;;;12.36;37.98;99422.16;5963072;23;20015;-86
2022/12/28 08:38:45;;;;;;;0.88;0.40;;;;;;;12.20;37.75;99392.22;5963776;23;20315;-86
2022/12/28 08:41:15;;;;;;;0.20;0.20;;;;;;;12.33;37.67;99412.72;5962894;23;20011;-86
2022/12/28 08:43:41;;;;;;;0.30;0.30;;;;;;;12.28;37.98;99401.84;5963431;23;20329;-86
2022/12/28 08:46:18;;;;;;;0.73;0.40;;;;;;;12.32;37.96;99427.16;5963698;23;20011;-86
2022/12/28 08:48:44;;;;;;;0.20;0.20;;;;;;;12.25;37.79;99399.59;5965819;23;20007;-86
2022/12/28 08:51:11;;;;;;;0.43;0.30;;;;;;;12.38;37.71;99412.03;5963094;23;20023;-86
2022/12/28 08:53:37;;;;;;;0.45;0.40;;;;;;;12.49;37.66;99432.72;5963325;23;20039;-86
2022/12/28 08:56:04;;;;;;;0.35;0.35;;;;;;;12.47;37.99;99440.19;5963605;23;20034;-86
2022/12/28 08:58:30;;;;;;;0.25;0.20;;;;;;;12.31;37.87;99420.13;6036174;23;20099;-86
2022/12/28 09:01:04;;;;;;;0.30;0.20;;;;;;;12.50;37.56;99452.31;5987409;23;20031;-86
2022/12/28 09:03:35;;;;;;;0.40;0.25;;;;;;;12.39;37.91;99437.78;6001714;23;20058;-86
2022/12/28 09:06:03;;;;;;;1.02;0.40;;;;;;;12.46;38.07;99449.25;6038475;23;20062;-86
2022/12/28 09:08:28;;;;;;;0.75;0.47;;;;;;;12.39;38.22;99443.16;6038689;23;20029;-86
2022/12/28 09:10:57;;;;;;;0.75;0.35;;;;;;;12.44;38.28;99445.97;6062817;23;20075;-86
2022/12/28 09:13:30;;;;;;;0.40;0.30;;;;;;;12.46;37.99;99449.25;6013862;23;20556;-86
2022/12/28 09:16:00;;;;;;;0.40;0.40;;;;;;;12.38;37.73;99447.69;6037852;23;20026;-86
2022/12/28 09:18:26;;;;;;;0.40;0.38;;;;;;;12.35;37.84;99441.97;6014615;23;20325;-86
2022/12/28 09:20:53;;;;;;;0.30;0.30;;;;;;;12.17;37.84;99419.47;6015084;23;20078;-86
2022/12/28 09:23:19;;;;;;;0.85;0.40;;;;;;;12.25;37.66;99438.97;6014786;23;20010;-86
2022/12/28 09:25:45;;;;;;;0.30;0.30;;;;;;;12.16;38.29;99412.47;6014882;23;20540;-86
2022/12/28 09:28:10;;;;;;;0.28;0.28;;;;;;;12.16;38.12;99409.81;6013050;23;20007;-86
2022/12/28 09:30:36;;;;;;;0.68;0.32;;;;;;;12.30;37.67;99429.22;6014490;23;20011;-86
2022/12/28 09:35:46;;;;;;;0.35;0.35;;;;;;;12.18;37.85;99407.72;6042230;23;20150;-86
2022/12/28 09:38:12;;;;;;;0.30;0.30;;;;;;;12.36;37.99;99438.22;6014971;23;20010;-86
2022/12/28 09:40:37;;;;;;;0.60;0.30;;;;;;;12.30;38.08;99433.78;6014829;23;20086;-86
2022/12/28 09:43:04;;;;;;;0.65;0.30;;;;;;;12.35;38.27;99441.97;6013842;23;20070;-86
2022/12/28 09:45:30;;;;;;;0.75;0.25;;;;;;;12.28;38.35;99430.47;6014154;23;20015;-86
2022/12/28 09:48:04;;;;;;;1.25;0.40;;;;;;;12.25;37.85;99433.63;6014088;23;20205;-86
2022/12/28 09:50:31;;;;;;;0.40;0.30;;;;;;;12.25;38.17;99438.97;6015489;23;20002;-86
2022/12/28 09:53:06;;;;;;;0.25;0.25;;;;;;;12.44;37.94;99475.47;6037893;23;20479;-85
2022/12/28 09:55:37;;;;;;;0.32;0.32;;;;;;;12.33;37.99;99455.59;6061635;23;20449;-85
2022/12/28 09:58:04;;;;;;;0.73;0.40;;;;;;;12.34;38.16;99467.13;6015561;23;20022;-86
2022/12/28 10:00:38;;;;;;;0.52;0.30;;;;;;;12.19;37.96;99452.22;6015238;23;20034;-86
2022/12/28 10:03:13;;;;;;;0.52;0.35;;;;;;;12.38;38.14;99479.00;6015372;23;20434;-86
2022/12/28 10:05:39;;;;;;;0.40;0.30;;;;;;;12.27;37.82;99461.00;6015272;23;20356;-86
2022/12/28 10:08:09;;;;;;;0.28;0.20;;;;;;;12.33;37.58;99478.84;6039159;23;20087;-86
2022/12/28 10:10:37;;;;;;;1.13;0.30;;;;;;;12.12;38.17;99435.38;6014910;23;20011;-85
2022/12/28 10:13:36;;;;;;;0.30;0.30;;;;;;;12.25;38.32;99468.44;6014943;23;20011;-86
2022/12/28 10:16:06;;;;;;;0.40;0.40;;;;;;;12.29;37.95;99457.06;6037888;23;20436;-86
2022/12/28 10:18:31;;;;;;;0.32;0.20;;;;;;;12.45;37.97;99489.66;6015657;23;20017;-86
2022/12/28 10:21:00;;;;;;;0.28;0.28;;;;;;;12.29;38.23;99462.41;6015237;23;20018;-86
2022/12/28 10:23:28;;;;;;;0.20;0.20;;;;;;;12.02;38.04;99438.56;6013939;23;20002;-86
2022/12/28 10:25:54;;;;;;;1.05;0.40;;;;;;;12.13;38.54;99453.09;6014055;23;20061;-86
2022/12/28 10:28:21;;;;;;;0.20;0.20;;;;;;;12.15;38.29;99463.59;6013983;23;20071;-86
2022/12/28 10:31:01;;;;;;;0.30;0.30;;;;;;;12.18;38.24;99458.59;6014432;23;20011;-86
2022/12/28 10:33:26;;;;;;;0.40;0.40;;;;;;;12.33;38.19;99481.53;6016790;23;20436;-86
2022/12/28 10:35:53;;;;;;;1.05;0.30;;;;;;;12.19;38.25;99460.25;6013309;23;20013;-86
2022/12/28 10:38:22;;;;;;;0.45;0.40;;;;;;;12.43;38.20;99500.59;6013313;23;20330;-86
2022/12/28 10:41:00;;;;;;;0.45;0.25;;;;;;;12.43;38.18;99491.75;6060815;23;20014;-86
2022/12/28 10:43:37;;;;;;;0.47;0.30;;;;;;;12.41;38.40;99491.97;6061391;23;20050;-86
2022/12/28 10:46:05;;;;;;;0.93;0.40;;;;;;;12.39;38.19;99494.06;6014950;23;20010;-86
2022/12/28 10:48:33;;;;;;;0.47;0.30;;;;;;;12.43;38.21;99492.56;6061723;23;20007;-86
2022/12/28 10:51:12;;;;;;;0.30;0.30;;;;;;;12.41;38.25;99500.00;6037533;23;20010;-86
2022/12/28 10:53:38;;;;;;;0.50;0.30;;;;;;;12.43;38.24;99500.59;6014319;23;20007;-86
2022/12/28 10:56:13;;;;;;;0.43;0.30;;;;;;;12.45;38.21;99505.75;6062929;23;20087;-86
2022/12/28 10:58:44;;;;;;;0.88;0.35;;;;;;;12.40;38.16;99509.13;6063139;23;20007;-86
2022/12/28 11:01:13;;;;;;;0.65;0.40;;;;;;;12.45;38.35;99519.97;6014254;23;20022;-85
2022/12/28 11:03:41;;;;;;;0.68;0.40;;;;;;;12.23;38.29;99486.59;6060605;23;20926;-85
2022/12/28 11:06:08;;;;;;;0.50;0.30;;;;;;;12.30;38.32;99500.75;6013742;23;20185;-85
2022/12/28 11:08:34;;;;;;;0.57;0.30;;;;;;;12.32;38.25;99509.38;6037873;23;20017;-85
2022/12/28 11:11:00;;;;;;;0.85;0.40;;;;;;;12.35;38.15;99501.72;6013598;23;20018;-86
2022/12/28 11:13:26;;;;;;;0.75;0.40;;;;;;;12.24;38.48;99489.03;6013749;23;20341;-85
2022/12/28 11:15:52;;;;;;;0.20;0.20;;;;;;;12.38;38.46;99509.34;6037264;23;20603;-86
2022/12/28 11:18:18;;;;;;;0.55;0.40;;;;;;;12.41;38.18;99516.09;6013835;23;20068;-86
2022/12/28 11:20:45;;;;;;;0.35;0.30;;;;;;;12.28;38.26;99486.75;6014021;23;20389;-86
2022/12/28 11:23:19;;;;;;;0.20;0.20;;;;;;;12.43;38.33;99508.66;6037521;23;20003;-86
2022/12/28 11:25:45;;;;;;;0.40;0.30;;;;;;;12.43;38.29;99511.31;6037561;23;20440;-85
2022/12/28 11:28:16;;;;;;;0.47;0.32;;;;;;;12.30;38.37;99503.44;6037897;23;20080;-86
2022/12/28 11:30:42;;;;;;;0.65;0.30;;;;;;;12.46;38.43;99526.97;6015097;23;20015;-85
2022/12/28 11:33:28;;;;;;;0.65;0.40;;;;;;;12.40;38.16;99525.19;6061231;23;20444;-86
2022/12/28 11:35:54;;;;;;;0.57;0.40;;;;;;;12.43;38.45;99523.91;6038969;23;20191;-86
2022/12/28 11:38:36;;;;;;;0.65;0.40;;;;;;;12.43;38.20;99530.09;6064423;23;20530;-86
2022/12/28 11:41:02;;;;;;;0.50;0.40;;;;;;;12.46;38.39;99526.16;6015589;23;19998;-85
2022/12/28 11:43:28;;;;;;;0.43;0.30;;;;;;;12.49;38.24;99533.75;6015704;23;20018;-86
2022/12/28 11:46:00;;;;;;;0.60;0.30;;;;;;;12.47;38.22;99533.97;6063430;23;20015;-86
2022/12/28 11:48:41;;;;;;;0.65;0.30;;;;;;;12.44;38.52;99530.94;6039739;23;20062;-86
2022/12/28 11:51:20;;;;;;;0.57;0.30;;;;;;;12.42;38.51;99532.97;6062330;23;20014;-86
2022/12/28 11:53:45;;;;;;;1.17;0.50;;;;;;;12.44;38.45;99537.09;6063137;23;20006;-86
2022/12/28 11:56:15;;;;;;;0.65;0.40;;;;;;;12.36;38.48;99526.66;6062750;23;20065;-86
2022/12/28 11:58:43;;;;;;;0.55;0.20;;;;;;;12.46;38.12;99529.66;6016047;23;20070;-86
2022/12/28 12:01:28;;;;;;;1.13;0.38;;;;;;;12.35;38.24;99517.00;6061502;23;20006;-86
2022/12/28 12:03:57;;;;;;;0.63;0.30;;;;;;;12.44;38.59;99537.09;6039861;23;20025;-86
2022/12/28 12:06:41;;;;;;;0.22;0.20;;;;;;;12.44;38.36;99528.25;6062413;23;20027;-86
2022/12/28 12:09:29;;;;;;;0.40;0.40;;;;;;;12.44;38.29;99542.47;6060050;23;20038;-86
2022/12/28 12:12:05;;;;;;;2.28;0.40;;;;;;;12.44;38.22;99537.09;6061731;23;20034;-86